Time;durP1;ratioP1;P1;durP2;ratioP2;P2;SDS_P1;SDS_P2;PMS_P1;PMS_P2;Temp;Humidity;BMP_temperature;BMP_pressure;BME280_temperature;BME280_humidity;BME280_pressure;Samples;Min_cycle;Max_cycle;Signal;HPM_P1;HPM_P2
2023/04/29 00:00:05;;;;;;;6.65;4.18;;;12.80;78.60;;;;;;4956691;28;20030;-82
2023/04/29 00:02:31;;;;;;;7.15;4.30;;;12.80;78.60;;;;;;4957740;28;20499;-85
2023/04/29 00:04:57;;;;;;;6.50;3.88;;;12.80;78.60;;;;;;4957693;28;20035;-86
2023/04/29 00:07:22;;;;;;;7.75;4.75;;;12.80;79.20;;;;;;4957676;28;20070;-85
2023/04/29 00:09:48;;;;;;;6.55;4.47;;;12.80;78.60;;;;;;4956632;28;20400;-86
2023/04/29 00:12:13;;;;;;;6.70;4.20;;;12.80;78.60;;;;;;4963690;28;20105;-87
2023/04/29 00:14:39;;;;;;;6.80;4.05;;;12.80;78.60;;;;;;4965367;28;20104;-87
2023/04/29 00:17:05;;;;;;;7.20;4.47;;;12.80;78.60;;;;;;4965199;28;20442;-86
2023/04/29 00:19:30;;;;;;;7.32;4.40;;;12.80;78.70;;;;;;4964982;28;20026;-86
2023/04/29 00:21:56;;;;;;;7.75;4.95;;;12.80;78.70;;;;;;4963617;28;20027;-86
2023/04/29 00:24:21;;;;;;;6.95;4.20;;;12.80;78.70;;;;;;4969953;28;20026;-86
2023/04/29 00:26:47;;;;;;;6.90;4.60;;;12.80;78.70;;;;;;4986499;28;20031;-86
2023/04/29 00:29:13;;;;;;;7.25;4.45;;;12.80;78.70;;;;;;4968670;28;20411;-86
2023/04/29 00:31:39;;;;;;;7.20;5.00;;;12.80;78.70;;;;;;4967680;28;20022;-85
2023/04/29 00:34:04;;;;;;;7.28;4.95;;;12.80;78.70;;;;;;4967047;28;20027;-86
2023/04/29 00:36:31;;;;;;;8.07;5.10;;;12.80;78.70;;;;;;4967018;28;20403;-86
2023/04/29 00:38:57;;;;;;;7.70;5.18;;;12.80;78.70;;;;;;4966501;28;20094;-87
2023/04/29 00:41:23;;;;;;;7.50;4.50;;;12.80;78.80;;;;;;4966193;28;20046;-87
2023/04/29 00:43:48;;;;;;;7.47;4.90;;;12.80;78.80;;;;;;4966619;28;20038;-87
2023/04/29 00:46:14;;;;;;;7.80;5.25;;;12.80;78.70;;;;;;4966505;28;20023;-85
2023/04/29 00:48:40;;;;;;;7.10;5.03;;;12.80;78.70;;;;;;4966127;28;20037;-87
2023/04/29 00:51:06;;;;;;;8.60;5.72;;;12.80;78.80;;;;;;4961720;28;20023;-86
2023/04/29 00:53:33;;;;;;;8.02;5.28;;;12.80;78.80;;;;;;4960697;28;20499;-85
2023/04/29 00:56:00;;;;;;;7.78;5.25;;;12.80;78.80;;;;;;4960000;28;20166;-86
2023/04/29 00:58:32;;;;;;;8.32;5.70;;;12.80;78.80;;;;;;4964499;28;20046;-86
2023/04/29 01:01:01;;;;;;;8.48;5.75;;;12.80;78.80;;;;;;4964914;28;20027;-87
2023/04/29 01:03:31;;;;;;;7.80;5.50;;;12.80;78.80;;;;;;4967828;28;20038;-87
2023/04/29 01:06:08;;;;;;;8.82;5.85;;;12.80;78.80;;;;;;4970009;28;20499;-87
2023/04/29 01:09:05;;;;;;;8.63;5.90;;;12.80;78.90;;;;;;4969287;28;20034;-86
2023/04/29 01:11:38;;;;;;;8.70;5.85;;;12.80;78.90;;;;;;4985800;28;20027;-86
2023/04/29 01:14:04;;;;;;;8.70;5.68;;;12.80;78.90;;;;;;4969125;28;20098;-86
2023/04/29 01:16:40;;;;;;;9.43;6.38;;;12.80;78.90;;;;;;4968433;28;20022;-86
2023/04/29 01:19:26;;;;;;;9.50;6.90;;;12.80;78.90;;;;;;4966663;28;20022;-87
2023/04/29 01:21:52;;;;;;;9.55;6.63;;;12.80;79.00;;;;;;4965865;28;20073;-86
2023/04/29 01:24:17;;;;;;;10.02;6.78;;;12.80;78.90;;;;;;4983398;28;20047;-86
2023/04/29 01:27:28;;;;;;;9.05;6.28;;;12.80;78.90;;;;;;4966191;28;20019;-86
2023/04/29 01:30:05;;;;;;;10.80;7.07;;;12.80;79.00;;;;;;4963545;28;20121;-87
2023/04/29 01:32:50;;;;;;;10.07;7.05;;;12.80;79.00;;;;;;4982555;28;20484;-86
2023/04/29 01:35:24;;;;;;;10.70;6.68;;;12.80;79.00;;;;;;4964132;28;20035;-87
2023/04/29 01:38:04;;;;;;;10.73;7.15;;;12.80;79.10;;;;;;4982584;28;20019;-85
2023/04/29 01:40:42;;;;;;;10.07;7.22;;;12.80;79.10;;;;;;4981589;28;20047;-86
2023/04/29 01:43:10;;;;;;;12.05;7.97;;;12.80;79.10;;;;;;4964195;28;20037;-87
2023/04/29 01:45:40;;;;;;;11.07;7.63;;;12.80;79.20;;;;;;4962339;28;20069;-86
2023/04/29 01:48:06;;;;;;;10.98;7.45;;;12.80;79.10;;;;;;4959235;28;20027;-86
2023/04/29 01:50:31;;;;;;;11.43;8.13;;;12.80;79.20;;;;;;4958854;28;20082;-86
2023/04/29 01:52:57;;;;;;;11.63;7.72;;;12.80;79.30;;;;;;4977058;28;20027;-86
2023/04/29 01:55:22;;;;;;;11.60;7.70;;;12.80;79.20;;;;;;4959334;28;20050;-86
2023/04/29 01:57:48;;;;;;;11.70;7.97;;;12.70;79.20;;;;;;4959062;28;20114;-86
2023/04/29 02:00:14;;;;;;;11.65;7.32;;;12.80;79.30;;;;;;4962116;28;20432;-86
2023/04/29 02:02:39;;;;;;;12.30;8.05;;;12.80;79.30;;;;;;4962674;28;20042;-85
2023/04/29 02:05:05;;;;;;;12.55;7.97;;;12.80;79.30;;;;;;4963530;28;20027;-85
2023/04/29 02:07:30;;;;;;;12.55;8.57;;;12.80;79.40;;;;;;4962911;28;20049;-86
2023/04/29 02:09:56;;;;;;;12.05;8.63;;;12.80;79.50;;;;;;4978192;28;20098;-85
2023/04/29 02:12:22;;;;;;;11.60;8.48;;;12.80;79.50;;;;;;4958798;28;20041;-86
2023/04/29 02:14:51;;;;;;;11.60;8.00;;;12.80;79.50;;;;;;4958474;28;20443;-86
2023/04/29 02:17:17;;;;;;;11.75;8.23;;;12.80;79.50;;;;;;4959077;28;20047;-85
2023/04/29 02:19:42;;;;;;;12.70;8.50;;;12.80;79.50;;;;;;4958621;28;20027;-85
2023/04/29 02:22:11;;;;;;;12.70;8.63;;;12.80;79.60;;;;;;4958365;28;20061;-85
2023/04/29 02:24:36;;;;;;;10.90;7.68;;;12.80;79.60;;;;;;4958850;28;20023;-85
2023/04/29 02:27:04;;;;;;;11.45;8.10;;;12.80;79.70;;;;;;4958867;28;20037;-85
2023/04/29 02:29:30;;;;;;;13.07;8.95;;;12.80;79.50;;;;;;4958352;28;20143;-83
2023/04/29 02:31:56;;;;;;;13.02;8.30;;;12.80;79.70;;;;;;4958017;28;20027;-86
2023/04/29 02:34:22;;;;;;;12.70;8.57;;;12.80;79.60;;;;;;4959610;28;20027;-85
2023/04/29 02:36:48;;;;;;;12.90;8.55;;;12.70;79.60;;;;;;4960108;28;20113;-86
2023/04/29 02:39:14;;;;;;;12.35;8.48;;;12.70;79.60;;;;;;4977219;28;20054;-86
2023/04/29 02:41:40;;;;;;;12.15;7.95;;;12.80;79.70;;;;;;4958152;28;20443;-86
2023/04/29 02:44:06;;;;;;;12.20;8.15;;;12.80;79.70;;;;;;4958221;28;20022;-86
2023/04/29 02:46:34;;;;;;;12.57;8.52;;;12.80;79.70;;;;;;4957814;28;20117;-86
2023/04/29 02:48:59;;;;;;;13.48;9.05;;;12.80;79.70;;;;;;4959078;28;20131;-86
2023/04/29 02:51:25;;;;;;;12.82;8.48;;;12.80;79.70;;;;;;4959352;28;20062;-86
2023/04/29 02:53:50;;;;;;;13.23;9.00;;;12.80;79.80;;;;;;4977074;28;20078;-86
2023/04/29 02:56:16;;;;;;;12.80;9.05;;;12.80;79.80;;;;;;4959460;28;20077;-85
2023/04/29 02:58:41;;;;;;;13.02;9.25;;;12.80;79.80;;;;;;4959503;28;20053;-85
2023/04/29 03:01:07;;;;;;;12.35;8.48;;;12.80;79.80;;;;;;4958476;28;20043;-85
2023/04/29 03:03:32;;;;;;;13.30;8.95;;;12.80;79.80;;;;;;4959429;28;20094;-85
2023/04/29 03:05:58;;;;;;;13.38;9.02;;;12.80;79.90;;;;;;4976280;28;20029;-85
2023/04/29 03:08:23;;;;;;;12.50;8.75;;;12.80;79.90;;;;;;4959240;28;20428;-85
2023/04/29 03:10:49;;;;;;;12.15;8.77;;;12.80;79.90;;;;;;4958337;28;20031;-85
2023/04/29 03:13:14;;;;;;;13.05;9.07;;;12.80;79.90;;;;;;4974795;28;20527;-85
2023/04/29 03:15:40;;;;;;;13.68;9.27;;;12.80;79.90;;;;;;4957041;28;20031;-85
2023/04/29 03:18:06;;;;;;;13.40;9.32;;;12.80;79.90;;;;;;4957470;28;20029;-85
2023/04/29 03:20:31;;;;;;;11.77;8.40;;;12.80;80.00;;;;;;4958196;28;20030;-86
2023/04/29 03:22:57;;;;;;;13.18;8.70;;;12.80;80.00;;;;;;4958070;28;20069;-86
2023/04/29 03:25:23;;;;;;;13.73;9.40;;;12.80;80.00;;;;;;4975241;28;20105;-86
2023/04/29 03:27:49;;;;;;;13.40;9.15;;;12.80;80.00;;;;;;4955499;28;20023;-85
2023/04/29 03:30:14;;;;;;;14.18;9.20;;;12.80;80.10;;;;;;4956742;28;20022;-85
2023/04/29 03:32:40;;;;;;;14.20;9.77;;;12.80;80.10;;;;;;4957378;28;20027;-86
2023/04/29 03:35:06;;;;;;;13.07;9.02;;;12.80;80.10;;;;;;4974467;28;20102;-86
2023/04/29 03:37:31;;;;;;;13.30;9.75;;;12.80;80.20;;;;;;4956886;28;20022;-86
2023/04/29 03:39:56;;;;;;;12.88;8.85;;;12.80;80.20;;;;;;4992802;23;20048;-82
2023/04/29 03:42:22;;;;;;;14.52;9.40;;;12.80;80.20;;;;;;5015086;28;20083;-82
2023/04/29 03:44:47;;;;;;;13.38;9.98;;;12.80;80.10;;;;;;5033284;28;20029;-82
2023/04/29 03:47:13;;;;;;;13.60;8.93;;;12.80;80.30;;;;;;5015554;28;20426;-82
2023/04/29 03:49:38;;;;;;;13.75;9.40;;;12.70;80.20;;;;;;5015551;28;20037;-82
2023/04/29 03:52:05;;;;;;;13.32;9.40;;;12.80;80.40;;;;;;5032995;28;20029;-82
2023/04/29 03:54:30;;;;;;;14.30;9.00;;;12.80;80.40;;;;;;5015123;28;20504;-82
2023/04/29 03:56:56;;;;;;;13.77;9.07;;;12.80;80.40;;;;;;5014886;28;20022;-81
2023/04/29 03:59:21;;;;;;;12.75;8.93;;;12.80;80.40;;;;;;5015378;28;20440;-80
2023/04/29 04:01:47;;;;;;;13.15;8.98;;;12.80;80.40;;;;;;5032648;28;20096;-82
2023/04/29 04:04:13;;;;;;;12.98;9.55;;;12.80;80.40;;;;;;5015230;28;20032;-83
2023/04/29 04:06:38;;;;;;;14.35;9.63;;;12.80;80.50;;;;;;5015334;28;20021;-82
2023/04/29 04:09:04;;;;;;;12.40;9.07;;;12.80;80.50;;;;;;5015218;28;20465;-83
2023/04/29 04:11:29;;;;;;;13.68;8.95;;;12.80;80.40;;;;;;5014145;28;20026;-83
2023/04/29 04:13:55;;;;;;;13.73;9.70;;;12.80;80.50;;;;;;5014987;28;20087;-83
2023/04/29 04:16:20;;;;;;;14.15;9.88;;;12.80;80.40;;;;;;5014917;28;20033;-83
2023/04/29 04:18:46;;;;;;;13.88;9.80;;;12.80;80.50;;;;;;5015452;28;20029;-82
2023/04/29 04:21:12;;;;;;;13.35;9.30;;;12.80;80.60;;;;;;5014553;28;20018;-83
2023/04/29 04:23:41;;;;;;;12.95;9.48;;;12.80;80.60;;;;;;5015141;28;20018;-83
2023/04/29 04:26:06;;;;;;;13.07;9.50;;;12.80;80.60;;;;;;5013866;28;20033;-82
2023/04/29 04:28:32;;;;;;;13.40;9.48;;;12.80;80.60;;;;;;5024445;28;20401;-83
2023/04/29 04:30:58;;;;;;;15.50;10.27;;;12.80;80.60;;;;;;5014717;28;20524;-82
2023/04/29 04:33:25;;;;;;;13.85;9.98;;;12.70;80.60;;;;;;5014911;28;20501;-82
2023/04/29 04:35:50;;;;;;;15.02;10.70;;;12.80;80.70;;;;;;5014980;28;20036;-82
2023/04/29 04:38:16;;;;;;;14.43;10.20;;;12.80;80.70;;;;;;5014888;28;20017;-82
2023/04/29 04:40:42;;;;;;;15.00;10.55;;;12.80;80.60;;;;;;5014639;28;20033;-82
2023/04/29 04:43:07;;;;;;;14.00;10.32;;;12.80;80.60;;;;;;5032445;28;20032;-82
2023/04/29 04:45:33;;;;;;;14.50;9.77;;;12.80;80.60;;;;;;5032784;28;20029;-82
2023/04/29 04:47:59;;;;;;;17.02;11.05;;;12.80;80.70;;;;;;5015014;28;20108;-80
2023/04/29 04:50:27;;;;;;;14.43;10.07;;;12.80;80.70;;;;;;5014425;28;20437;-82
2023/04/29 04:52:54;;;;;;;15.07;10.85;;;12.80;80.70;;;;;;5014787;28;20033;-83
2023/04/29 04:55:20;;;;;;;14.82;9.95;;;12.80;80.70;;;;;;5032223;28;20029;-82
2023/04/29 04:57:45;;;;;;;13.80;10.40;;;12.80;80.70;;;;;;5014722;28;20394;-83
2023/04/29 05:00:11;;;;;;;13.88;10.15;;;12.80;80.70;;;;;;5014470;28;20084;-83
2023/04/29 05:02:37;;;;;;;15.13;10.23;;;12.80;80.60;;;;;;5014542;28;20048;-82
2023/04/29 05:05:09;;;;;;;13.90;10.45;;;12.80;80.70;;;;;;5015139;28;20152;-83
2023/04/29 05:07:34;;;;;;;15.27;11.13;;;12.80;80.80;;;;;;5011142;28;20402;-86
2023/04/29 05:10:01;;;;;;;14.80;10.88;;;12.80;80.70;;;;;;5014253;28;20037;-84
2023/04/29 05:12:30;;;;;;;14.15;10.48;;;12.80;80.70;;;;;;5016716;28;20033;-85
2023/04/29 05:14:56;;;;;;;14.35;10.43;;;12.80;80.70;;;;;;5016109;28;20395;-82
2023/04/29 05:17:21;;;;;;;14.88;10.25;;;12.80;80.70;;;;;;5016447;28;20060;-82
2023/04/29 05:19:47;;;;;;;13.60;10.65;;;12.80;80.70;;;;;;5016633;28;20064;-85
2023/04/29 05:22:13;;;;;;;15.13;11.10;;;12.80;80.70;;;;;;5016318;28;20028;-83
2023/04/29 05:24:38;;;;;;;15.05;10.27;;;13.00;80.80;;;;;;5016426;28;20113;-83
2023/04/29 05:27:04;;;;;;;14.70;10.38;;;12.80;80.70;;;;;;5016179;28;20029;-83
2023/04/29 05:29:30;;;;;;;13.77;9.88;;;12.80;80.80;;;;;;5016553;28;20030;-83
2023/04/29 05:31:55;;;;;;;14.45;10.20;;;12.80;80.80;;;;;;5016401;28;20490;-84
2023/04/29 05:34:21;;;;;;;14.23;10.93;;;12.90;80.80;;;;;;5016439;28;20060;-85
2023/04/29 05:36:46;;;;;;;14.40;10.52;;;12.80;80.80;;;;;;5016231;28;20029;-86
2023/04/29 05:39:12;;;;;;;15.70;11.10;;;12.60;80.70;;;;;;5016192;28;20030;-84
2023/04/29 05:41:37;;;;;;;14.73;10.77;;;12.80;80.80;;;;;;5015965;28;20145;-81
2023/04/29 05:44:03;;;;;;;14.30;10.30;;;12.80;80.80;;;;;;5016609;28;20036;-83
2023/04/29 05:46:29;;;;;;;14.93;10.32;;;12.80;80.80;;;;;;5016183;28;20084;-83
2023/04/29 05:48:54;;;;;;;15.18;11.07;;;12.80;80.80;;;;;;5016492;28;20088;-82
2023/04/29 05:51:20;;;;;;;13.98;10.10;;;12.80;80.80;;;;;;5016601;28;20027;-83
2023/04/29 05:53:45;;;;;;;14.30;10.38;;;12.80;80.80;;;;;;5016101;28;20025;-84
2023/04/29 05:56:11;;;;;;;13.90;10.73;;;12.80;80.90;;;;;;5016068;28;20040;-84
2023/04/29 05:58:36;;;;;;;16.15;10.82;;;12.80;80.90;;;;;;5015879;28;20040;-84
2023/04/29 06:01:02;;;;;;;13.93;10.63;;;12.80;80.90;;;;;;5014450;28;20374;-83
2023/04/29 06:03:28;;;;;;;14.32;10.63;;;12.80;80.80;;;;;;5014253;28;20036;-83
2023/04/29 06:05:54;;;;;;;13.68;10.52;;;12.70;80.80;;;;;;5013967;28;20025;-83
2023/04/29 06:08:20;;;;;;;14.90;11.32;;;12.80;80.80;;;;;;5013752;28;20065;-82
2023/04/29 06:10:46;;;;;;;14.82;11.00;;;12.80;80.80;;;;;;5013210;28;20560;-84
2023/04/29 06:13:11;;;;;;;14.23;10.52;;;12.80;80.80;;;;;;5013879;28;20037;-84
2023/04/29 06:15:37;;;;;;;15.57;11.23;;;12.90;80.90;;;;;;5013543;28;20025;-85
2023/04/29 06:18:03;;;;;;;14.35;11.15;;;12.80;80.80;;;;;;5014249;28;20030;-83
2023/04/29 06:20:28;;;;;;;13.45;10.00;;;12.90;80.90;;;;;;5013958;28;20057;-83
2023/04/29 06:22:54;;;;;;;14.35;10.77;;;12.80;80.90;;;;;;5032700;28;20033;-82
2023/04/29 06:25:19;;;;;;;15.00;11.02;;;12.80;80.90;;;;;;5014055;28;20393;-83
2023/04/29 06:27:45;;;;;;;15.30;11.07;;;12.80;80.90;;;;;;5031383;28;20034;-82
2023/04/29 06:30:11;;;;;;;14.13;10.77;;;12.80;80.90;;;;;;5014037;28;20040;-83
2023/04/29 06:32:38;;;;;;;14.80;11.02;;;12.80;80.90;;;;;;5013576;28;20059;-83
2023/04/29 06:35:04;;;;;;;14.20;11.30;;;12.80;80.90;;;;;;5013515;28;20037;-84
2023/04/29 06:37:29;;;;;;;14.20;10.95;;;12.70;80.90;;;;;;5013695;28;20025;-83
2023/04/29 06:39:55;;;;;;;14.32;10.90;;;12.80;80.90;;;;;;5013519;28;20670;-84
2023/04/29 06:42:20;;;;;;;13.57;10.80;;;12.80;80.90;;;;;;5013287;28;20437;-84
2023/04/29 06:44:46;;;;;;;14.80;11.30;;;12.80;80.90;;;;;;5012994;28;20025;-83
2023/04/29 06:47:11;;;;;;;13.85;11.02;;;12.80;81.00;;;;;;5013382;28;20460;-84
2023/04/29 06:49:37;;;;;;;14.55;11.35;;;12.90;81.10;;;;;;5013430;28;20116;-82
2023/04/29 06:52:03;;;;;;;15.57;11.52;;;12.80;81.10;;;;;;5013209;28;20029;-83
2023/04/29 06:54:29;;;;;;;15.02;11.57;;;12.80;81.10;;;;;;5013433;28;20700;-82
2023/04/29 06:56:54;;;;;;;15.07;12.05;;;12.80;81.20;;;;;;5013349;28;20041;-84
2023/04/29 06:59:23;;;;;;;14.80;11.57;;;12.80;81.10;;;;;;5013236;28;20525;-84
2023/04/29 07:01:50;;;;;;;14.25;11.40;;;12.80;81.20;;;;;;5013470;28;20045;-85
2023/04/29 07:04:16;;;;;;;15.25;11.50;;;12.90;81.20;;;;;;5014072;28;20060;-84
2023/04/29 07:06:45;;;;;;;15.52;11.55;;;12.90;81.30;;;;;;5013572;28;20144;-82
2023/04/29 07:09:16;;;;;;;16.10;11.93;;;12.90;81.10;;;;;;5014118;28;20032;-85
2023/04/29 07:12:08;;;;;;;15.65;12.05;;;12.80;81.10;;;;;;5013866;28;20098;-87
2023/04/29 07:14:33;;;;;;;16.95;12.05;;;12.80;81.10;;;;;;5012032;28;20036;-84
2023/04/29 07:16:59;;;;;;;16.33;12.30;;;12.80;81.10;;;;;;4993629;28;20026;-84
2023/04/29 07:19:24;;;;;;;17.05;12.18;;;12.90;81.10;;;;;;5006155;28;20025;-82
2023/04/29 07:21:50;;;;;;;15.07;11.88;;;12.80;81.10;;;;;;5033047;28;20629;-83
2023/04/29 07:24:15;;;;;;;16.45;12.70;;;12.90;81.10;;;;;;5033016;28;20107;-83
2023/04/29 07:26:43;;;;;;;16.45;12.93;;;12.90;81.10;;;;;;5032824;28;20575;-83
2023/04/29 07:29:09;;;;;;;16.83;12.43;;;12.80;81.10;;;;;;5032933;28;20049;-83
2023/04/29 07:31:35;;;;;;;17.08;12.52;;;12.80;81.00;;;;;;5031662;28;20029;-84
2023/04/29 07:34:01;;;;;;;15.88;12.25;;;12.90;81.20;;;;;;5032231;28;20090;-82
2023/04/29 07:36:27;;;;;;;16.55;12.50;;;12.90;81.10;;;;;;5031775;28;20462;-83
2023/04/29 07:38:53;;;;;;;15.50;12.63;;;12.90;81.10;;;;;;5031875;28;20024;-82
2023/04/29 07:41:19;;;;;;;16.63;12.98;;;12.80;80.90;;;;;;5031831;28;20029;-82
2023/04/29 07:43:45;;;;;;;16.58;12.75;;;12.90;81.10;;;;;;5032067;28;20028;-83
2023/04/29 07:46:10;;;;;;;15.95;12.63;;;12.90;81.10;;;;;;5049570;28;20039;-82
2023/04/29 07:48:38;;;;;;;15.43;12.18;;;12.90;81.00;;;;;;5032133;28;20079;-83
2023/04/29 07:51:04;;;;;;;16.25;12.63;;;12.90;81.00;;;;;;5018344;28;20405;-82
2023/04/29 07:53:29;;;;;;;16.67;12.50;;;12.90;80.90;;;;;;5011616;28;20051;-84
2023/04/29 07:55:55;;;;;;;16.70;12.98;;;12.90;80.90;;;;;;5012630;28;20037;-83
2023/04/29 07:58:21;;;;;;;16.88;13.90;;;12.90;80.90;;;;;;5012137;28;20414;-80
2023/04/29 08:00:47;;;;;;;17.00;12.68;;;12.90;81.00;;;;;;5007276;28;20108;-80
2023/04/29 08:03:12;;;;;;;17.73;13.85;;;12.90;81.00;;;;;;5009122;28;20945;-83
2023/04/29 08:05:38;;;;;;;17.35;12.57;;;12.90;80.90;;;;;;5012669;28;20036;-83
2023/04/29 08:08:03;;;;;;;16.88;13.48;;;12.90;80.90;;;;;;5012317;28;20490;-80
2023/04/29 08:10:29;;;;;;;16.17;12.70;;;12.90;80.90;;;;;;5011357;28;20542;-81
2023/04/29 08:12:55;;;;;;;15.98;13.05;;;12.90;80.90;;;;;;5011361;28;20021;-81
2023/04/29 08:15:20;;;;;;;16.73;12.85;;;12.90;80.90;;;;;;5029100;28;20187;-81
2023/04/29 08:17:46;;;;;;;16.52;12.63;;;12.90;80.80;;;;;;5011369;28;20022;-83
2023/04/29 08:20:12;;;;;;;18.13;13.68;;;12.90;80.80;;;;;;5011993;28;20034;-82
2023/04/29 08:22:37;;;;;;;16.90;12.60;;;12.90;80.80;;;;;;5029775;28;20025;-83
2023/04/29 08:25:07;;;;;;;16.33;12.73;;;12.90;80.80;;;;;;5011753;28;20111;-82
2023/04/29 08:27:32;;;;;;;16.17;12.93;;;12.90;80.80;;;;;;5046841;28;20047;-81
2023/04/29 08:29:58;;;;;;;16.83;13.38;;;12.90;80.70;;;;;;5013073;28;20498;-83
2023/04/29 08:32:24;;;;;;;15.77;12.32;;;12.90;80.60;;;;;;5012233;28;20057;-84
2023/04/29 08:34:52;;;;;;;18.77;13.40;;;12.90;80.60;;;;;;5011658;28;20478;-83
2023/04/29 08:37:19;;;;;;;16.35;13.20;;;12.90;80.60;;;;;;5012243;28;20032;-84
2023/04/29 08:39:47;;;;;;;15.65;12.13;;;12.90;80.60;;;;;;5029520;28;20029;-84
2023/04/29 08:42:13;;;;;;;15.57;12.68;;;12.90;80.50;;;;;;5045619;28;20148;-81
2023/04/29 08:44:43;;;;;;;17.08;13.25;;;12.90;80.40;;;;;;5016480;28;20470;-80
2023/04/29 08:47:09;;;;;;;15.63;12.57;;;13.00;80.50;;;;;;5016655;28;20057;-81
2023/04/29 08:49:36;;;;;;;16.67;13.60;;;12.90;80.30;;;;;;5034267;28;20060;-79
2023/04/29 08:52:02;;;;;;;17.20;13.10;;;13.00;80.30;;;;;;5049383;28;20497;-80
2023/04/29 08:54:28;;;;;;;15.45;12.20;;;13.00;80.30;;;;;;5033835;28;20030;-79
2023/04/29 08:56:55;;;;;;;16.52;12.85;;;13.00;80.20;;;;;;5016121;28;20021;-79
2023/04/29 08:59:22;;;;;;;15.65;13.00;;;13.00;80.20;;;;;;5033846;28;20025;-81
2023/04/29 09:01:51;;;;;;;15.45;13.00;;;13.00;80.20;;;;;;5048650;28;20117;-80
2023/04/29 09:04:28;;;;;;;21.60;13.15;;;13.00;80.10;;;;;;5015316;28;20059;-80
2023/04/29 09:06:56;;;;;;;17.15;12.93;;;13.00;80.40;;;;;;5015469;28;20025;-81
2023/04/29 09:09:23;;;;;;;22.45;13.73;;;13.10;80.60;;;;;;5015080;28;20035;-79
2023/04/29 09:11:49;;;;;;;18.73;12.90;;;13.10;80.50;;;;;;5032947;28;20101;-80
2023/04/29 09:14:15;;;;;;;18.98;13.30;;;13.10;80.50;;;;;;5016224;28;20025;-81
2023/04/29 09:16:40;;;;;;;18.52;13.07;;;13.10;80.30;;;;;;5015662;28;20031;-81
2023/04/29 09:19:06;;;;;;;17.92;13.15;;;13.10;80.20;;;;;;5015252;28;20026;-80
2023/04/29 09:21:32;;;;;;;18.98;12.98;;;13.00;80.00;;;;;;5014619;28;20021;-80
2023/04/29 09:24:00;;;;;;;17.25;12.45;;;13.10;80.10;;;;;;5032052;28;20509;-80
2023/04/29 09:26:26;;;;;;;17.17;12.52;;;13.20;80.00;;;;;;5030076;28;20099;-80
2023/04/29 09:29:08;;;;;;;19.52;12.38;;;13.10;79.90;;;;;;5010377;28;20033;-80
2023/04/29 09:31:33;;;;;;;17.20;12.45;;;13.20;79.90;;;;;;5011532;28;20033;-80
2023/04/29 09:33:59;;;;;;;17.17;13.20;;;13.20;79.90;;;;;;5029263;28;20185;-79
2023/04/29 09:36:44;;;;;;;17.45;13.07;;;13.10;79.80;;;;;;5011592;28;20025;-80
2023/04/29 09:39:17;;;;;;;16.52;12.82;;;13.10;79.80;;;;;;5011887;28;20025;-79
2023/04/29 09:41:49;;;;;;;17.40;12.02;;;13.20;79.80;;;;;;5011397;28;20121;-80
2023/04/29 09:44:15;;;;;;;16.00;12.95;;;13.20;79.70;;;;;;5011316;28;20412;-81
2023/04/29 09:46:41;;;;;;;15.88;12.82;;;13.20;79.70;;;;;;5011761;28;20037;-79
2023/04/29 09:49:24;;;;;;;16.13;12.13;;;13.20;79.60;;;;;;5011551;28;20444;-79
2023/04/29 09:51:58;;;;;;;17.85;12.50;;;13.20;79.40;;;;;;5011418;28;20087;-80
2023/04/29 09:54:28;;;;;;;16.42;12.57;;;13.20;79.40;;;;;;5010901;28;20080;-79
2023/04/29 09:56:55;;;;;;;18.45;13.13;;;13.20;79.40;;;;;;5010547;28;20069;-79
2023/04/29 09:59:21;;;;;;;15.23;12.25;;;13.20;79.40;;;;;;5011548;28;20029;-79
2023/04/29 10:01:57;;;;;;;16.77;12.57;;;13.20;79.40;;;;;;5010962;28;20375;-80
2023/04/29 10:04:25;;;;;;;15.77;12.27;;;13.30;79.40;;;;;;5028717;28;20044;-80
2023/04/29 10:06:53;;;;;;;17.15;12.75;;;13.30;79.40;;;;;;5010956;28;20145;-79
2023/04/29 10:09:20;;;;;;;15.48;11.38;;;13.30;79.30;;;;;;5011030;28;20377;-79
2023/04/29 10:11:47;;;;;;;15.38;12.23;;;13.30;79.80;;;;;;5043882;28;20051;-80
2023/04/29 10:14:18;;;;;;;14.73;11.73;;;13.30;79.30;;;;;;5010888;28;20048;-81
2023/04/29 10:16:47;;;;;;;15.57;12.35;;;13.30;79.30;;;;;;5010807;28;20033;-79
2023/04/29 10:19:23;;;;;;;14.82;12.05;;;13.20;79.20;;;;;;5010652;28;20029;-81
2023/04/29 10:21:49;;;;;;;15.43;12.38;;;13.30;79.20;;;;;;5010822;28;20025;-79
2023/04/29 10:24:16;;;;;;;14.70;11.52;;;13.30;79.20;;;;;;5010676;28;20028;-81
2023/04/29 10:26:43;;;;;;;14.55;11.95;;;13.30;79.20;;;;;;5010555;28;20029;-79
2023/04/29 10:29:10;;;;;;;15.85;12.63;;;13.30;79.10;;;;;;5010341;28;20026;-78
2023/04/29 10:31:38;;;;;;;17.05;11.75;;;13.30;79.10;;;;;;5010286;28;20066;-79
2023/04/29 10:34:03;;;;;;;14.20;11.52;;;13.30;79.00;;;;;;5043886;28;20409;-81
2023/04/29 10:36:30;;;;;;;16.25;12.15;;;13.30;79.00;;;;;;5010656;28;20033;-80
2023/04/29 10:38:59;;;;;;;13.85;11.10;;;13.30;79.10;;;;;;5010695;28;20108;-80
2023/04/29 10:41:38;;;;;;;14.23;11.02;;;13.20;79.00;;;;;;5010322;28;20037;-79
2023/04/29 10:44:03;;;;;;;13.90;11.70;;;13.30;79.10;;;;;;5010585;28;20029;-79
2023/04/29 10:46:29;;;;;;;12.82;10.48;;;13.30;79.00;;;;;;5010409;28;20052;-79
2023/04/29 10:48:59;;;;;;;15.38;11.82;;;13.30;78.90;;;;;;5010186;28;20017;-80
2023/04/29 10:51:32;;;;;;;14.23;10.82;;;13.20;78.90;;;;;;5027699;28;20053;-79
2023/04/29 10:54:13;;;;;;;13.95;10.95;;;13.30;78.80;;;;;;5009965;28;20109;-78
2023/04/29 10:56:53;;;;;;;13.85;10.73;;;13.40;78.90;;;;;;5009907;28;20088;-79
2023/04/29 10:59:41;;;;;;;13.43;10.75;;;13.40;78.80;;;;;;5010244;28;20505;-79
2023/04/29 11:02:08;;;;;;;13.30;10.82;;;13.40;78.80;;;;;;5009835;28;20490;-79
2023/04/29 11:04:34;;;;;;;14.07;11.35;;;13.40;78.80;;;;;;5027774;28;20025;-79
2023/04/29 11:07:01;;;;;;;15.30;11.15;;;13.40;78.80;;;;;;5043228;28;20048;-80
2023/04/29 11:09:34;;;;;;;13.73;11.13;;;13.40;78.80;;;;;;5009678;28;20140;-77
2023/04/29 11:12:02;;;;;;;12.73;10.27;;;13.30;78.80;;;;;;5027609;28;20437;-78
2023/04/29 11:14:35;;;;;;;16.05;11.38;;;13.40;79.00;;;;;;5021909;28;20779;-78
2023/04/29 11:17:03;;;;;;;14.02;10.93;;;13.30;78.90;;;;;;5023688;28;20071;-79
2023/04/29 11:19:35;;;;;;;14.10;10.88;;;13.30;78.90;;;;;;5009404;28;20585;-79
2023/04/29 11:22:17;;;;;;;12.80;10.50;;;13.30;78.90;;;;;;5012713;28;20782;-80
2023/04/29 11:25:00;;;;;;;14.35;10.57;;;13.30;78.90;;;;;;5012613;28;20022;-77
2023/04/29 11:27:37;;;;;;;14.77;11.15;;;13.30;78.90;;;;;;5030307;28;20021;-78
2023/04/29 13:13:28;;;;;;;19.70;10.95;;;12.90;81.50;;;;;;4876971;29;20521;-79
2023/04/29 13:23:21;;;;;;;14.77;9.32;;;13.10;80.20;;;;;;5245276;23;20541;-80
2023/04/29 16:18:27;;;;;;;12.95;6.78;;;13.20;79.80;;;;;;5228327;23;20051;-81
2023/04/29 16:27:44;;;;;;;24.40;7.40;;;13.20;79.80;;;;;;5887439;23;20441;-83
2023/04/29 16:34:06;;;;;;;12.70;5.95;;;13.20;79.80;;;;;;4935393;28;20047;-82
2023/04/29 16:37:11;;;;;;;19.65;7.22;;;13.20;80.10;;;;;;4953972;29;20043;-81
2023/04/29 16:40:07;;;;;;;18.00;6.53;;;13.20;80.40;;;;;;4950399;29;20027;-82
2023/04/29 16:42:50;;;;;;;15.07;6.82;;;13.20;80.10;;;;;;4905367;28;20034;-81
2023/04/29 16:49:03;;;;;;;16.88;5.97;;;13.20;79.80;;;;;;4943632;29;20039;-85
2023/04/29 17:02:06;;;;;;;13.38;6.10;;;13.40;80.60;;;;;;4954735;29;20099;-83
2023/04/29 17:05:08;;;;;;;11.55;5.55;;;13.40;80.80;;;;;;4917913;29;20390;-83
2023/04/29 17:10:03;;;;;;;12.63;5.68;;;13.50;82.20;;;;;;4921122;29;20417;-83
2023/04/29 17:12:28;;;;;;;13.73;5.68;;;13.60;82.80;;;;;;4920663;29;20024;-84
2023/04/29 17:14:54;;;;;;;12.90;5.50;;;13.70;83.80;;;;;;4922180;29;20032;-82
2023/04/29 17:17:20;;;;;;;8.63;4.93;;;13.80;84.80;;;;;;4921230;29;20028;-83
2023/04/29 17:19:48;;;;;;;12.88;5.78;;;13.90;85.00;;;;;;4920622;29;20031;-81
2023/04/29 17:22:15;;;;;;;10.70;5.30;;;14.00;85.30;;;;;;4922798;29;20060;-78
2023/04/29 17:24:43;;;;;;;11.05;5.18;;;14.10;85.70;;;;;;4905574;29;20051;-82
2023/04/29 17:27:09;;;;;;;10.27;5.18;;;14.20;85.80;;;;;;4905150;29;20096;-83
2023/04/29 17:29:35;;;;;;;11.40;5.35;;;14.30;86.00;;;;;;4905367;29;20028;-83
2023/04/29 17:32:08;;;;;;;15.15;6.03;;;14.40;86.20;;;;;;4905229;29;20500;-83
2023/04/29 17:34:36;;;;;;;12.32;5.28;;;14.40;86.20;;;;;;4904280;29;20123;-83
2023/04/29 17:37:01;;;;;;;13.73;5.35;;;14.40;86.40;;;;;;4904856;29;20028;-84
2023/04/29 17:39:27;;;;;;;11.63;4.93;;;14.50;86.30;;;;;;4904544;29;20035;-82
2023/04/29 17:41:53;;;;;;;13.07;5.32;;;14.50;86.20;;;;;;4904663;29;20086;-81
2023/04/29 17:44:19;;;;;;;12.80;5.18;;;14.50;86.10;;;;;;4903758;29;20024;-81
2023/04/29 17:46:44;;;;;;;11.63;4.65;;;14.60;86.00;;;;;;4903239;29;20028;-83